Pensaukee, Wisconsin
Current Conditions -  °F | °C
As of 1:15 AM on Saturday 25 Oct 2014 (Local Time) from KOCQ Reporting Station
Overcast Overcast  
Wind Chill: 55°   Ceiling: 1300
Heat Index: 55°   Visibility: 10mi
Dew Point: 53°   Wind: 6mph
Humidity: 96%   Direction: 250°WSW
Pressure: 29.79"   Gusts: NA
Location:  44.8992°N, 87.92°W
Report Text: KOCQ 250615Z AUTO 25005KT 10SM OVC013 13/12 A2979 RMK AO1 T01250118
Loading
Personal Weather Stations






























Interactive Weather Map
Tropical Storm Tracking
New forecast layout! Learn more

10-Day Weather Forecast

Advertisements
Track Severe Weather on mobile